Time;durP1;ratioP1;P1;durP2;ratioP2;P2;SDS_P1;SDS_P2;PMS_P1;PMS_P2;Temp;Humidity;BMP_temperature;BMP_pressure;BME280_temperature;BME280_humidity;BME280_pressure;Samples;Min_cycle;Max_cycle;Signal;HPM_P1;HPM_P2
2023/01/26 00:01:54;;;;;;;11.63;5.43;;;;;;;;;;5073374;28;20855;-72
2023/01/26 00:04:21;;;;;;;9.80;5.53;;;;;;;;;;5073229;28;20451;-72
2023/01/26 00:06:48;;;;;;;8.90;5.80;;;;;;;;;;5073454;28;20460;-72
2023/01/26 00:09:15;;;;;;;11.40;6.23;;;;;;;;;;5073129;28;20480;-72
2023/01/26 00:11:43;;;;;;;11.30;5.27;;;;;;;;;;5073139;28;20447;-72
2023/01/26 00:14:10;;;;;;;9.10;5.57;;;;;;;;;;5073127;28;20443;-72
2023/01/26 00:16:38;;;;;;;10.30;5.10;;;;;;;;;;5073030;28;20992;-72
2023/01/26 00:19:05;;;;;;;7.40;4.30;;;;;;;;;;5073019;28;20475;-72
2023/01/26 00:21:32;;;;;;;7.60;4.70;;;;;;;;;;5073070;28;20455;-72
2023/01/26 00:23:59;;;;;;;13.57;9.37;;;;;;;;;;5073057;28;20456;-72
2023/01/26 00:26:27;;;;;;;15.87;10.67;;;;;;;;;;5073083;28;20486;-72
2023/01/26 00:28:56;;;;;;;14.10;7.40;;;;;;;;;;5072751;28;20517;-72
2023/01/26 00:31:24;;;;;;;9.27;5.07;;;;;;;;;;5072925;28;20466;-72
2023/01/26 00:33:51;;;;;;;7.73;4.30;;;;;;;;;;5072909;28;20960;-72
2023/01/26 00:36:18;;;;;;;9.03;5.60;;;;;;;;;;5072866;28;20491;-72
2023/01/26 00:38:46;;;;;;;7.47;5.20;;;;;;;;;;5072646;28;20472;-72
2023/01/26 00:42:05;;;;;;;8.93;4.57;;;;;;;;;;5072699;28;20456;-72
2023/01/26 00:44:02;;;;;;;7.67;4.83;;;;;;;;;;5072432;28;20881;-72
2023/01/26 00:46:29;;;;;;;8.93;4.93;;;;;;;;;;5072678;28;20451;-72
2023/01/26 00:48:56;;;;;;;9.80;4.50;;;;;;;;;;5072572;28;20467;-72
2023/01/26 00:51:23;;;;;;;8.00;4.80;;;;;;;;;;5072571;28;20458;-72
2023/01/26 00:53:51;;;;;;;10.40;5.60;;;;;;;;;;5072710;28;20459;-72
2023/01/26 00:56:18;;;;;;;10.00;5.97;;;;;;;;;;5072718;28;20487;-72
2023/01/26 00:58:45;;;;;;;11.70;6.63;;;;;;;;;;5072454;28;20475;-72
2023/01/26 01:01:13;;;;;;;21.37;7.60;;;;;;;;;;5072800;28;20447;-72
2023/01/26 01:03:40;;;;;;;15.67;8.20;;;;;;;;;;5072433;28;20945;-72
2023/01/26 01:06:07;;;;;;;18.17;8.03;;;;;;;;;;5072554;28;20455;-72
2023/01/26 01:08:35;;;;;;;15.10;8.00;;;;;;;;;;5072564;28;20468;-72
2023/01/26 01:11:05;;;;;;;16.00;8.10;;;;;;;;;;5073403;28;20451;-72
2023/01/26 01:13:33;;;;;;;13.07;6.70;;;;;;;;;;5076337;28;20451;-72
2023/01/26 01:16:00;;;;;;;14.20;7.73;;;;;;;;;;5076526;28;20494;-72
2023/01/26 01:18:28;;;;;;;13.07;7.00;;;;;;;;;;5076149;28;20472;-72
2023/01/26 01:20:55;;;;;;;13.30;6.57;;;;;;;;;;5076330;28;20877;-72
2023/01/26 01:23:22;;;;;;;15.80;6.90;;;;;;;;;;5076329;28;20456;-72
2023/01/26 01:25:56;;;;;;;19.30;7.33;;;;;;;;;;5075990;28;20472;-72
2023/01/26 01:28:24;;;;;;;16.37;6.40;;;;;;;;;;5076048;28;20451;-72
2023/01/26 01:30:51;;;;;;;17.23;7.30;;;;;;;;;;5075980;28;20867;-72
2023/01/26 01:33:18;;;;;;;13.87;6.40;;;;;;;;;;5075994;28;20862;-72
2023/01/26 01:35:56;;;;;;;15.43;7.30;;;;;;;;;;5075739;28;20498;-72
2023/01/26 01:38:23;;;;;;;12.90;7.00;;;;;;;;;;5075918;28;20483;-72
2023/01/26 01:40:50;;;;;;;19.67;6.80;;;;;;;;;;5075710;28;20466;-72
2023/01/26 01:43:17;;;;;;;14.33;8.20;;;;;;;;;;5075300;28;20448;-72
2023/01/26 01:45:45;;;;;;;20.90;9.40;;;;;;;;;;5075737;28;20933;-72
2023/01/26 01:48:15;;;;;;;25.10;13.97;;;;;;;;;;5075920;28;20448;-72
2023/01/26 01:50:43;;;;;;;20.60;9.63;;;;;;;;;;5075899;28;20948;-72
2023/01/26 01:53:13;;;;;;;13.73;7.20;;;;;;;;;;5075640;28;20967;-72
2023/01/26 01:55:40;;;;;;;14.50;8.30;;;;;;;;;;5075582;28;20491;-72
2023/01/26 01:58:08;;;;;;;15.67;7.43;;;;;;;;;;5075478;28;20460;-72
2023/01/26 02:00:35;;;;;;;14.13;7.10;;;;;;;;;;5075393;28;20460;-72
2023/01/26 02:03:10;;;;;;;23.07;8.90;;;;;;;;;;5075414;28;20452;-72
2023/01/26 02:05:41;;;;;;;14.20;8.10;;;;;;;;;;5075589;28;20551;-72
2023/01/26 02:08:09;;;;;;;31.43;7.40;;;;;;;;;;5075321;28;20456;-72
2023/01/26 02:10:37;;;;;;;19.90;9.20;;;;;;;;;;5075153;28;20455;-72
2023/01/26 02:13:05;;;;;;;15.40;8.80;;;;;;;;;;5075398;28;20454;-72
2023/01/26 02:15:32;;;;;;;13.43;7.20;;;;;;;;;;5075133;28;21089;-72
2023/01/26 02:18:01;;;;;;;12.83;7.30;;;;;;;;;;5075345;28;20471;-72
2023/01/26 02:20:33;;;;;;;19.57;8.30;;;;;;;;;;5074954;28;20467;-72
2023/01/26 02:23:03;;;;;;;17.90;7.57;;;;;;;;;;5074840;28;20941;-72
2023/01/26 02:25:35;;;;;;;17.50;8.00;;;;;;;;;;5074994;28;20818;-72
2023/01/26 02:28:03;;;;;;;16.40;8.20;;;;;;;;;;5074946;28;20452;-72
2023/01/26 02:30:30;;;;;;;21.07;9.03;;;;;;;;;;5074897;28;20472;-72
2023/01/26 02:32:57;;;;;;;21.13;8.73;;;;;;;;;;5075011;28;20469;-72
2023/01/26 02:35:25;;;;;;;16.70;9.27;;;;;;;;;;5074663;28;20487;-72
2023/01/26 02:37:52;;;;;;;20.93;9.77;;;;;;;;;;5074858;28;20459;-72
2023/01/26 02:40:26;;;;;;;19.93;9.57;;;;;;;;;;5074800;28;20475;-72
2023/01/26 02:42:53;;;;;;;17.47;8.83;;;;;;;;;;5074356;28;20458;-72
2023/01/26 02:45:22;;;;;;;14.20;7.73;;;;;;;;;;5074697;28;20791;-72
2023/01/26 02:47:49;;;;;;;17.73;8.67;;;;;;;;;;5074499;28;20539;-72
2023/01/26 02:50:16;;;;;;;24.70;10.30;;;;;;;;;;5074676;28;20478;-72
2023/01/26 02:52:43;;;;;;;19.70;10.07;;;;;;;;;;5074747;28;20501;-72
2023/01/26 02:55:21;;;;;;;18.60;8.70;;;;;;;;;;5074259;28;20811;-72
2023/01/26 02:57:48;;;;;;;18.23;9.47;;;;;;;;;;5074445;28;20495;-72
2023/01/26 03:00:17;;;;;;;22.30;9.67;;;;;;;;;;5074231;28;20479;-72
2023/01/26 03:02:46;;;;;;;22.90;9.20;;;;;;;;;;5074441;28;20948;-72
2023/01/26 03:05:13;;;;;;;19.10;10.00;;;;;;;;;;5074030;28;20458;-72
2023/01/26 03:07:40;;;;;;;20.00;8.23;;;;;;;;;;5074403;28;20458;-72
2023/01/26 03:10:08;;;;;;;17.20;8.03;;;;;;;;;;5073974;28;20475;-72
2023/01/26 03:12:35;;;;;;;15.20;7.00;;;;;;;;;;5074426;28;20459;-72
2023/01/26 03:17:48;;;;;;;15.80;9.17;;;;;;;;;;5073987;28;20419;-72
2023/01/26 03:28:30;;;;;;;14.97;7.07;;;;;;;;;;5073779;28;20493;-72
2023/01/26 03:30:58;;;;;;;10.50;6.00;;;;;;;;;;5073687;28;20827;-72
2023/01/26 03:33:26;;;;;;;6.27;4.30;;;;;;;;;;5073242;28;20463;-72
2023/01/26 03:35:54;;;;;;;10.83;5.40;;;;;;;;;;5073620;28;20480;-72
2023/01/26 03:38:21;;;;;;;9.73;5.13;;;;;;;;;;5073682;28;20455;-72
2023/01/26 03:57:17;;;;;;;16.87;9.70;;;;;;;;;;5073337;28;20536;-72
2023/01/26 03:59:45;;;;;;;18.00;9.57;;;;;;;;;;5073109;28;20483;-72
2023/01/26 04:10:28;;;;;;;20.23;8.40;;;;;;;;;;5073074;28;20439;-72
2023/01/26 04:21:30;;;;;;;21.13;9.50;;;;;;;;;;5073155;28;20423;-72
2023/01/26 04:23:58;;;;;;;21.20;11.13;;;;;;;;;;5072812;28;20483;-72
2023/01/26 04:26:25;;;;;;;14.07;8.70;;;;;;;;;;5073153;28;20443;-72
2023/01/26 04:28:53;;;;;;;14.03;8.80;;;;;;;;;;5072724;28;20988;-72
2023/01/26 04:31:20;;;;;;;17.43;9.23;;;;;;;;;;5072960;28;20451;-72
2023/01/26 04:33:47;;;;;;;17.93;9.23;;;;;;;;;;5072724;28;20588;-72
2023/01/26 04:36:16;;;;;;;10.07;6.17;;;;;;;;;;5072919;28;20495;-72
2023/01/26 04:38:43;;;;;;;12.97;6.90;;;;;;;;;;5072752;28;20467;-72
2023/01/26 04:41:10;;;;;;;9.80;5.83;;;;;;;;;;5072709;28;20455;-72
2023/01/26 04:43:37;;;;;;;8.90;6.63;;;;;;;;;;5072329;28;20455;-72
2023/01/26 04:46:05;;;;;;;11.57;6.80;;;;;;;;;;5073704;28;20854;-72
2023/01/26 04:48:33;;;;;;;18.10;9.37;;;;;;;;;;5076847;28;20467;-72
2023/01/26 04:51:01;;;;;;;17.87;9.20;;;;;;;;;;5076949;28;20440;-72
2023/01/26 04:53:29;;;;;;;16.03;8.83;;;;;;;;;;5076880;28;21118;-71
2023/01/26 04:55:56;;;;;;;21.17;10.53;;;;;;;;;;5076682;28;20491;-72
2023/01/26 04:58:23;;;;;;;17.77;10.87;;;;;;;;;;5076672;28;20451;-72
2023/01/26 05:00:51;;;;;;;18.80;10.20;;;;;;;;;;5076584;28;20527;-72
2023/01/26 05:03:19;;;;;;;21.27;12.73;;;;;;;;;;5076727;28;20447;-72
2023/01/26 05:05:48;;;;;;;17.10;9.40;;;;;;;;;;5076364;28;20462;-72
2023/01/26 05:08:15;;;;;;;15.03;9.27;;;;;;;;;;5076715;28;20477;-72
2023/01/26 05:10:44;;;;;;;24.20;9.70;;;;;;;;;;5076485;28;20944;-72
2023/01/26 05:13:11;;;;;;;20.43;9.37;;;;;;;;;;5076458;28;20865;-72
2023/01/26 05:15:38;;;;;;;18.13;10.50;;;;;;;;;;5076118;28;20452;-72
2023/01/26 05:18:06;;;;;;;18.70;11.10;;;;;;;;;;5076198;28;20470;-72
2023/01/26 05:20:33;;;;;;;20.20;9.67;;;;;;;;;;5076310;28;20450;-72
2023/01/26 05:23:00;;;;;;;20.53;10.20;;;;;;;;;;5076221;28;20964;-72
2023/01/26 05:25:27;;;;;;;21.40;11.63;;;;;;;;;;5076158;28;20455;-72
2023/01/26 05:27:56;;;;;;;21.13;10.20;;;;;;;;;;5076152;28;20451;-72
2023/01/26 05:30:23;;;;;;;14.77;10.43;;;;;;;;;;5076105;28;20467;-72
2023/01/26 05:32:50;;;;;;;14.33;8.40;;;;;;;;;;5075998;28;20967;-72
2023/01/26 05:35:17;;;;;;;13.10;8.13;;;;;;;;;;5075877;28;20936;-72
2023/01/26 05:37:44;;;;;;;17.83;9.10;;;;;;;;;;5075740;28;20487;-72
2023/01/26 05:40:12;;;;;;;20.20;10.43;;;;;;;;;;5089712;28;20473;-72
2023/01/26 05:42:39;;;;;;;16.27;10.30;;;;;;;;;;5095790;28;20450;-72
2023/01/26 05:45:08;;;;;;;14.53;8.80;;;;;;;;;;5095938;28;20453;-72
2023/01/26 05:47:35;;;;;;;19.77;8.80;;;;;;;;;;5096035;28;20450;-72
2023/01/26 05:50:02;;;;;;;17.03;9.80;;;;;;;;;;5095834;28;20470;-72
2023/01/26 05:52:29;;;;;;;20.13;9.07;;;;;;;;;;5096032;28;20454;-72
2023/01/26 05:54:56;;;;;;;17.27;8.63;;;;;;;;;;5095784;28;20453;-72
2023/01/26 05:57:23;;;;;;;9.37;6.80;;;;;;;;;;5095166;28;20486;-72
2023/01/26 05:59:51;;;;;;;15.63;7.87;;;;;;;;;;5095676;28;20991;-72
2023/01/26 06:02:20;;;;;;;9.43;6.40;;;;;;;;;;5095799;28;20507;-72
2023/01/26 06:04:47;;;;;;;11.53;7.03;;;;;;;;;;5095591;28;20486;-72
2023/01/26 06:07:14;;;;;;;13.73;8.57;;;;;;;;;;5095675;28;20435;-72
2023/01/26 06:09:42;;;;;;;19.07;10.27;;;;;;;;;;5095640;28;20471;-72
2023/01/26 06:12:12;;;;;;;21.37;11.10;;;;;;;;;;5095494;28;20447;-72
2023/01/26 06:14:39;;;;;;;28.30;13.27;;;;;;;;;;5095613;28;20461;-72
2023/01/26 06:17:06;;;;;;;15.00;7.57;;;;;;;;;;5095407;28;20491;-72
2023/01/26 06:19:36;;;;;;;14.33;8.30;;;;;;;;;;5095392;28;20470;-72
2023/01/26 06:22:03;;;;;;;12.67;6.63;;;;;;;;;;5095463;28;20558;-72
2023/01/26 06:24:30;;;;;;;12.27;7.20;;;;;;;;;;5095205;28;20454;-72
2023/01/26 06:26:57;;;;;;;18.37;8.70;;;;;;;;;;5095403;28;20455;-72
2023/01/26 06:29:24;;;;;;;18.63;9.50;;;;;;;;;;5095423;28;20471;-72
2023/01/26 06:31:52;;;;;;;17.20;9.70;;;;;;;;;;5094874;28;20466;-72
2023/01/26 06:34:20;;;;;;;24.33;11.27;;;;;;;;;;5094445;28;20936;-72
2023/01/26 06:36:48;;;;;;;18.60;9.33;;;;;;;;;;5094953;28;20471;-72
2023/01/26 06:39:15;;;;;;;23.03;11.37;;;;;;;;;;5094847;28;20470;-72
2023/01/26 06:41:43;;;;;;;17.67;10.10;;;;;;;;;;5094658;28;20454;-72
2023/01/26 06:44:11;;;;;;;17.37;10.00;;;;;;;;;;5094829;28;20548;-72
2023/01/26 06:46:38;;;;;;;13.63;8.17;;;;;;;;;;5094814;28;20450;-72
2023/01/26 06:49:05;;;;;;;26.83;8.40;;;;;;;;;;5094674;28;20470;-72
2023/01/26 06:51:41;;;;;;;16.77;8.53;;;;;;;;;;5094856;28;20451;-72
2023/01/26 06:54:11;;;;;;;13.53;8.10;;;;;;;;;;5094528;28;20497;-72
2023/01/26 06:56:38;;;;;;;20.57;10.20;;;;;;;;;;5094431;28;20994;-72
2023/01/26 06:59:05;;;;;;;31.57;13.47;;;;;;;;;;5094429;28;20479;-72
2023/01/26 07:01:34;;;;;;;23.30;12.60;;;;;;;;;;5094787;28;20462;-72
2023/01/26 07:04:01;;;;;;;26.57;13.77;;;;;;;;;;5094330;28;20959;-71
2023/01/26 07:06:28;;;;;;;25.53;14.27;;;;;;;;;;5094559;28;20806;-71
2023/01/26 07:08:55;;;;;;;23.90;14.40;;;;;;;;;;5093279;28;20935;-72
2023/01/26 07:11:24;;;;;;;30.80;16.77;;;;;;;;;;5094480;28;20841;-72
2023/01/26 07:13:51;;;;;;;33.87;17.00;;;;;;;;;;5094268;28;20451;-72
2023/01/26 07:16:19;;;;;;;27.73;14.30;;;;;;;;;;5094160;28;20474;-73
2023/01/26 07:18:46;;;;;;;25.30;13.17;;;;;;;;;;5094039;28;20474;-72
2023/01/26 07:21:13;;;;;;;22.87;12.57;;;;;;;;;;5093960;28;20486;-72
2023/01/26 07:23:41;;;;;;;23.07;12.40;;;;;;;;;;5094203;28;20454;-72
2023/01/26 07:26:08;;;;;;;17.63;11.47;;;;;;;;;;5093865;28;20451;-72
2023/01/26 07:28:36;;;;;;;28.73;13.80;;;;;;;;;;5093960;28;20475;-72
2023/01/26 07:31:04;;;;;;;20.13;12.20;;;;;;;;;;5093773;28;20454;-72
2023/01/26 07:33:32;;;;;;;26.70;13.57;;;;;;;;;;5093692;28;20473;-72
2023/01/26 07:35:59;;;;;;;26.70;12.87;;;;;;;;;;5093511;28;20454;-72
2023/01/26 07:38:27;;;;;;;26.27;12.43;;;;;;;;;;5093640;28;20565;-72
2023/01/26 07:40:54;;;;;;;47.90;16.43;;;;;;;;;;5093517;28;20512;-72
2023/01/26 07:43:21;;;;;;;49.27;21.87;;;;;;;;;;5093531;28;20450;-72
2023/01/26 07:45:50;;;;;;;35.07;17.87;;;;;;;;;;5093330;28;20455;-72
2023/01/26 07:48:17;;;;;;;26.80;15.30;;;;;;;;;;5093356;28;20502;-72
2023/01/26 07:50:46;;;;;;;18.70;12.43;;;;;;;;;;5093637;28;20450;-71
2023/01/26 07:53:14;;;;;;;28.43;12.10;;;;;;;;;;5093674;28;20944;-72
2023/01/26 07:55:42;;;;;;;20.17;10.13;;;;;;;;;;5093105;28;20451;-72
2023/01/26 07:58:09;;;;;;;22.17;10.77;;;;;;;;;;5093118;28;20614;-72
2023/01/26 08:00:37;;;;;;;24.07;11.73;;;;;;;;;;5093327;28;20461;-72
2023/01/26 08:03:05;;;;;;;18.27;9.80;;;;;;;;;;5092992;28;20819;-71
2023/01/26 08:05:32;;;;;;;22.23;12.10;;;;;;;;;;5092974;28;20445;-71
2023/01/26 08:08:00;;;;;;;19.43;11.43;;;;;;;;;;5093092;28;20443;-72
2023/01/26 08:10:30;;;;;;;19.80;10.60;;;;;;;;;;5093173;28;20475;-71
2023/01/26 08:12:57;;;;;;;24.97;11.53;;;;;;;;;;5093075;28;20465;-72
2023/01/26 08:15:24;;;;;;;26.70;12.40;;;;;;;;;;5092963;28;20455;-72
2023/01/26 08:17:51;;;;;;;22.37;12.50;;;;;;;;;;5092912;28;20487;-72
2023/01/26 08:20:20;;;;;;;24.83;11.30;;;;;;;;;;5092858;28;20474;-72
2023/01/26 08:22:47;;;;;;;22.20;12.60;;;;;;;;;;5093136;28;20451;-72
2023/01/26 08:25:14;;;;;;;23.00;13.17;;;;;;;;;;5092776;28;20461;-72
2023/01/26 08:27:41;;;;;;;27.77;14.17;;;;;;;;;;5093090;28;20457;-72
2023/01/26 08:30:09;;;;;;;24.63;14.20;;;;;;;;;;5093028;28;20479;-72
2023/01/26 08:32:36;;;;;;;23.47;13.17;;;;;;;;;;5092700;28;20454;-72
2023/01/26 08:35:03;;;;;;;18.67;11.40;;;;;;;;;;5092454;28;20990;-72
2023/01/26 08:37:32;;;;;;;24.63;12.53;;;;;;;;;;5092883;28;20490;-72
2023/01/26 08:39:59;;;;;;;23.23;13.53;;;;;;;;;;5092596;28;20982;-72
2023/01/26 08:42:26;;;;;;;24.57;13.60;;;;;;;;;;5092456;28;20829;-72
2023/01/26 08:44:53;;;;;;;22.30;12.67;;;;;;;;;;5092508;28;20951;-71
2023/01/26 08:47:20;;;;;;;24.13;12.03;;;;;;;;;;5092866;28;20927;-71
2023/01/26 08:49:47;;;;;;;30.00;14.47;;;;;;;;;;5092623;28;20481;-71
2023/01/26 08:52:15;;;;;;;22.27;12.60;;;;;;;;;;5092940;28;20455;-71
2023/01/26 08:54:43;;;;;;;25.30;13.87;;;;;;;;;;5092393;28;20457;-71
2023/01/26 08:57:11;;;;;;;30.90;15.47;;;;;;;;;;5092597;28;20494;-71
2023/01/26 08:59:38;;;;;;;39.33;19.43;;;;;;;;;;5092567;28;20474;-72
2023/01/26 09:02:05;;;;;;;41.83;20.43;;;;;;;;;;5092741;28;20466;-72
2023/01/26 09:04:32;;;;;;;31.53;14.90;;;;;;;;;;5092655;28;20814;-72
2023/01/26 09:06:59;;;;;;;22.43;13.30;;;;;;;;;;5092381;28;20803;-73
2023/01/26 09:09:26;;;;;;;23.63;13.87;;;;;;;;;;5087535;28;20849;-73
2023/01/26 09:11:56;;;;;;;34.30;17.30;;;;;;;;;;5087793;28;20466;-73
2023/01/26 09:14:24;;;;;;;36.93;17.17;;;;;;;;;;5071142;28;20945;-72
2023/01/26 09:16:51;;;;;;;25.23;14.87;;;;;;;;;;5071412;28;20460;-72
2023/01/26 09:19:18;;;;;;;31.67;15.50;;;;;;;;;;5070909;28;20490;-72
2023/01/26 09:21:45;;;;;;;24.80;14.43;;;;;;;;;;5070923;28;20454;-72
2023/01/26 09:24:12;;;;;;;30.60;16.80;;;;;;;;;;5070972;28;20538;-72
2023/01/26 09:26:39;;;;;;;33.83;16.27;;;;;;;;;;5071190;28;20811;-71
2023/01/26 09:29:08;;;;;;;25.73;13.53;;;;;;;;;;5071183;28;20474;-72
2023/01/26 09:31:35;;;;;;;27.20;13.40;;;;;;;;;;5071553;28;20451;-72
2023/01/26 09:34:02;;;;;;;28.83;14.60;;;;;;;;;;5074056;28;20463;-72
2023/01/26 09:36:29;;;;;;;29.47;14.43;;;;;;;;;;5074569;28;20948;-72
2023/01/26 09:38:56;;;;;;;25.90;13.63;;;;;;;;;;5074272;28;21022;-72
2023/01/26 09:41:35;;;;;;;33.03;14.90;;;;;;;;;;5074556;28;20948;-72
2023/01/26 09:44:05;;;;;;;31.13;15.00;;;;;;;;;;5074343;28;20459;-71
2023/01/26 09:46:40;;;;;;;31.80;13.17;;;;;;;;;;5074627;28;20882;-72
2023/01/26 09:49:10;;;;;;;26.00;13.30;;;;;;;;;;5074432;28;20868;-72
2023/01/26 09:51:39;;;;;;;22.60;12.73;;;;;;;;;;5074367;28;20456;-72
2023/01/26 09:54:11;;;;;;;21.20;12.70;;;;;;;;;;5073955;28;20459;-72
2023/01/26 09:56:38;;;;;;;22.13;13.00;;;;;;;;;;5074230;28;20768;-72
2023/01/26 09:59:07;;;;;;;24.60;13.80;;;;;;;;;;5074137;28;20495;-72
2023/01/26 10:01:39;;;;;;;20.87;11.70;;;;;;;;;;5074250;28;20941;-72
2023/01/26 10:04:11;;;;;;;19.03;10.83;;;;;;;;;;5074027;28;20451;-71
2023/01/26 10:06:40;;;;;;;19.70;11.70;;;;;;;;;;5074145;28;20483;-72
2023/01/26 10:09:08;;;;;;;25.37;11.37;;;;;;;;;;5073636;28;20487;-71
2023/01/26 10:11:38;;;;;;;23.33;11.63;;;;;;;;;;5073839;28;20975;-71
2023/01/26 10:14:08;;;;;;;20.73;10.67;;;;;;;;;;5073668;28;20459;-71
2023/01/26 10:16:35;;;;;;;27.17;13.47;;;;;;;;;;5073892;28;20471;-71
2023/01/26 10:19:06;;;;;;;24.30;12.23;;;;;;;;;;5073932;28;20900;-71
2023/01/26 10:21:34;;;;;;;25.90;13.50;;;;;;;;;;5073835;28;20451;-71
2023/01/26 10:24:04;;;;;;;26.00;13.97;;;;;;;;;;5073397;28;20957;-71
2023/01/26 10:26:32;;;;;;;23.60;13.70;;;;;;;;;;5073794;28;20510;-71
2023/01/26 10:28:59;;;;;;;28.07;12.23;;;;;;;;;;5073542;28;20821;-71
2023/01/26 10:31:28;;;;;;;35.73;16.10;;;;;;;;;;5073743;28;20448;-71
2023/01/26 10:33:56;;;;;;;33.23;14.50;;;;;;;;;;5072917;28;20467;-71
2023/01/26 10:36:25;;;;;;;21.63;12.13;;;;;;;;;;5073561;28;20451;-71
2023/01/26 10:38:52;;;;;;;24.93;13.30;;;;;;;;;;5073261;28;20495;-71
2023/01/26 10:41:24;;;;;;;22.27;11.27;;;;;;;;;;5073542;28;20452;-71
2023/01/26 10:43:53;;;;;;;26.33;12.27;;;;;;;;;;5072617;28;20832;-71
2023/01/26 10:46:31;;;;;;;21.43;11.40;;;;;;;;;;5073026;28;20482;-71
2023/01/26 10:48:59;;;;;;;22.63;11.80;;;;;;;;;;5073051;28;20493;-71
2023/01/26 10:51:29;;;;;;;27.90;14.43;;;;;;;;;;5073398;28;20451;-70
2023/01/26 10:54:29;;;;;;;25.47;13.80;;;;;;;;;;5072913;28;20476;-71
2023/01/26 10:56:57;;;;;;;20.53;10.90;;;;;;;;;;5030603;28;20453;-71
2023/01/26 10:59:29;;;;;;;22.93;11.57;;;;;;;;;;5030577;28;20508;-71
2023/01/26 11:01:57;;;;;;;25.70;13.17;;;;;;;;;;5051116;28;20451;-71
2023/01/26 11:04:25;;;;;;;20.20;10.37;;;;;;;;;;5073103;28;20466;-71
2023/01/26 11:06:53;;;;;;;20.47;11.80;;;;;;;;;;5072021;28;20459;-71
2023/01/26 11:09:23;;;;;;;28.77;12.83;;;;;;;;;;5072752;28;20472;-71
2023/01/26 11:11:57;;;;;;;21.07;11.03;;;;;;;;;;5072686;28;20494;-71
2023/01/26 11:14:24;;;;;;;25.00;13.83;;;;;;;;;;5072578;28;20451;-71
2023/01/26 11:16:54;;;;;;;27.87;14.63;;;;;;;;;;5072657;28;20456;-71
2023/01/26 11:19:28;;;;;;;33.77;15.87;;;;;;;;;;5072547;28;20498;-71
2023/01/26 11:21:59;;;;;;;24.40;12.17;;;;;;;;;;5072416;28;20475;-71
2023/01/26 11:24:33;;;;;;;23.60;10.60;;;;;;;;;;5072319;28;20451;-71
2023/01/26 11:27:12;;;;;;;22.73;13.47;;;;;;;;;;5072262;28;20456;-71
2023/01/26 11:29:46;;;;;;;21.13;10.20;;;;;;;;;;5073188;28;21108;-71
2023/01/26 11:32:17;;;;;;;21.43;11.60;;;;;;;;;;5073669;28;20454;-71
2023/01/26 11:34:51;;;;;;;19.97;10.43;;;;;;;;;;5073371;28;20952;-71
2023/01/26 11:37:40;;;;;;;20.87;10.97;;;;;;;;;;5073376;28;20459;-71
2023/01/26 11:40:21;;;;;;;25.57;12.10;;;;;;;;;;5073425;28;20491;-71
2023/01/26 11:42:55;;;;;;;19.73;10.37;;;;;;;;;;5073321;28;21013;-71
2023/01/26 11:45:26;;;;;;;22.13;11.87;;;;;;;;;;5073257;28;20448;-71
2023/01/26 11:48:01;;;;;;;20.97;10.90;;;;;;;;;;5073447;28;20460;-71
2023/01/26 11:50:33;;;;;;;20.30;11.40;;;;;;;;;;5073499;28;20478;-71
2023/01/26 11:53:18;;;;;;;30.57;12.30;;;;;;;;;;5073589;28;20487;-71
2023/01/26 11:55:51;;;;;;;22.87;12.03;;;;;;;;;;5072739;28;20483;-71
2023/01/26 11:58:24;;;;;;;19.90;11.57;;;;;;;;;;5072854;28;21035;-71
2023/01/26 12:00:53;;;;;;;20.87;12.33;;;;;;;;;;5073156;28;20452;-71
2023/01/26 12:03:24;;;;;;;29.90;14.30;;;;;;;;;;5072948;28;20462;-71
2023/01/26 12:05:53;;;;;;;21.90;12.20;;;;;;;;;;5072975;28;20550;-71
2023/01/26 12:08:24;;;;;;;25.30;11.97;;;;;;;;;;5073181;28;20440;-71
2023/01/26 12:10:56;;;;;;;24.80;12.67;;;;;;;;;;5073078;28;20936;-71
2023/01/26 12:13:31;;;;;;;24.30;13.60;;;;;;;;;;5073132;28;20448;-71
2023/01/26 12:16:01;;;;;;;21.03;12.00;;;;;;;;;;5073023;28;20486;-71
2023/01/26 12:18:32;;;;;;;26.30;11.43;;;;;;;;;;5075647;28;20494;-71
2023/01/26 12:21:03;;;;;;;26.10;12.90;;;;;;;;;;5091787;28;20450;-71
2023/01/26 12:23:33;;;;;;;23.20;12.20;;;;;;;;;;5093224;28;20939;-71
2023/01/26 12:26:02;;;;;;;22.10;11.80;;;;;;;;;;5093119;28;20450;-71
2023/01/26 12:28:32;;;;;;;24.83;11.33;;;;;;;;;;5093172;28;20864;-71
2023/01/26 12:31:01;;;;;;;19.37;10.20;;;;;;;;;;5093208;28;20457;-71
2023/01/26 12:33:28;;;;;;;15.40;9.80;;;;;;;;;;5089665;28;20470;-71
2023/01/26 12:36:04;;;;;;;16.10;8.27;;;;;;;;;;5091906;28;20473;-71
2023/01/26 12:38:41;;;;;;;21.73;10.20;;;;;;;;;;5091783;28;20492;-71
2023/01/26 12:41:11;;;;;;;20.53;10.73;;;;;;;;;;5092414;28;20450;-71
2023/01/26 12:43:43;;;;;;;14.50;8.03;;;;;;;;;;5092341;28;20447;-72
2023/01/26 12:46:11;;;;;;;15.90;8.20;;;;;;;;;;5092815;28;20455;-71
2023/01/26 12:48:41;;;;;;;13.70;7.70;;;;;;;;;;5092730;28;20474;-71
2023/01/26 12:51:10;;;;;;;10.30;6.40;;;;;;;;;;5092738;28;20454;-71
2023/01/26 12:53:44;;;;;;;17.23;10.20;;;;;;;;;;5092885;28;20821;-71
2023/01/26 12:56:13;;;;;;;13.57;8.80;;;;;;;;;;5092991;28;20544;-71
2023/01/26 12:58:43;;;;;;;9.77;6.30;;;;;;;;;;5092751;28;21022;-71
2023/01/26 13:01:11;;;;;;;15.20;7.40;;;;;;;;;;5092910;28;20450;-71
2023/01/26 13:03:40;;;;;;;14.43;6.83;;;;;;;;;;5092847;28;20450;-72
2023/01/26 13:06:19;;;;;;;14.30;8.17;;;;;;;;;;5092855;28;20830;-71
2023/01/26 13:08:52;;;;;;;19.43;7.87;;;;;;;;;;5096263;28;20470;-71
2023/01/26 13:11:38;;;;;;;15.53;7.93;;;;;;;;;;5096646;28;20462;-71
2023/01/26 13:14:24;;;;;;;15.77;8.67;;;;;;;;;;5096499;28;20458;-71
2023/01/26 13:16:51;;;;;;;14.77;6.77;;;;;;;;;;5096510;28;20847;-71
2023/01/26 13:19:33;;;;;;;16.10;7.60;;;;;;;;;;5096365;28;20482;-71
2023/01/26 13:22:00;;;;;;;14.30;7.00;;;;;;;;;;5096359;28;20454;-71
2023/01/26 13:24:45;;;;;;;18.97;9.57;;;;;;;;;;5096120;28;20446;-71
2023/01/26 13:27:32;;;;;;;9.73;6.87;;;;;;;;;;5096256;28;20451;-71
2023/01/26 13:29:59;;;;;;;14.70;7.47;;;;;;;;;;5096186;28;20887;-71
2023/01/26 13:32:58;;;;;;;10.50;6.83;;;;;;;;;;5096442;28;20454;-71
2023/01/26 13:35:26;;;;;;;11.33;6.70;;;;;;;;;;5096151;28;20450;-72
2023/01/26 13:37:57;;;;;;;12.60;6.97;;;;;;;;;;5092323;28;20449;-72
2023/01/26 13:40:28;;;;;;;12.80;6.47;;;;;;;;;;5085995;28;20488;-71
2023/01/26 13:42:57;;;;;;;10.27;6.57;;;;;;;;;;5086081;28;20443;-72
2023/01/26 13:45:29;;;;;;;12.30;6.20;;;;;;;;;;5082217;28;20440;-72
2023/01/26 13:47:58;;;;;;;14.37;7.00;;;;;;;;;;5075800;28;20447;-71
2023/01/26 13:50:29;;;;;;;10.83;5.40;;;;;;;;;;5075872;28;20471;-71
2023/01/26 13:52:57;;;;;;;9.43;5.77;;;;;;;;;;5075817;28;20448;-71
2023/01/26 13:55:26;;;;;;;9.33;5.37;;;;;;;;;;5075521;28;20451;-71
2023/01/26 13:58:12;;;;;;;16.17;8.00;;;;;;;;;;5083881;28;20457;-71
2023/01/26 14:00:39;;;;;;;11.97;5.70;;;;;;;;;;5095845;28;20869;-71
2023/01/26 14:03:06;;;;;;;11.53;6.27;;;;;;;;;;5095629;28;20454;-71
2023/01/26 14:05:35;;;;;;;13.67;7.80;;;;;;;;;;5095424;28;20451;-71
2023/01/26 14:08:03;;;;;;;13.13;6.10;;;;;;;;;;5095350;28;20447;-71
2023/01/26 14:10:31;;;;;;;9.70;5.63;;;;;;;;;;5095422;28;20528;-71
2023/01/26 14:13:01;;;;;;;17.57;6.73;;;;;;;;;;5095256;28;20458;-72
2023/01/26 14:15:29;;;;;;;11.30;6.00;;;;;;;;;;5073190;28;20465;-71
2023/01/26 14:17:58;;;;;;;12.47;7.10;;;;;;;;;;5073289;28;20860;-71
2023/01/26 14:20:26;;;;;;;10.97;6.23;;;;;;;;;;5073871;28;20932;-71
2023/01/26 14:23:04;;;;;;;13.30;8.13;;;;;;;;;;5073398;28;20458;-71
2023/01/26 14:25:32;;;;;;;27.17;14.03;;;;;;;;;;5073085;28;20459;-71
2023/01/26 14:27:59;;;;;;;30.90;15.07;;;;;;;;;;5073851;28;20458;-71
2023/01/26 14:30:28;;;;;;;57.63;27.57;;;;;;;;;;5073353;28;20463;-71
2023/01/26 14:32:57;;;;;;;61.73;33.00;;;;;;;;;;5072801;28;20491;-71
2023/01/26 14:35:24;;;;;;;28.40;16.77;;;;;;;;;;5073210;28;20466;-71
2023/01/26 14:38:05;;;;;;;24.00;14.70;;;;;;;;;;5072042;28;20478;-71
2023/01/26 14:40:33;;;;;;;93.30;36.90;;;;;;;;;;5073069;28;20582;-71
2023/01/26 14:43:00;;;;;;;47.80;21.77;;;;;;;;;;5072778;28;20459;-71
2023/01/26 14:45:30;;;;;;;76.60;34.00;;;;;;;;;;5073568;28;20463;-72
2023/01/26 14:47:58;;;;;;;19.73;9.63;;;;;;;;;;5073278;28;20487;-71
2023/01/26 14:50:28;;;;;;;25.60;13.10;;;;;;;;;;5073120;28;20480;-71
2023/01/26 14:52:56;;;;;;;36.80;16.60;;;;;;;;;;5072819;28;20462;-71
2023/01/26 14:55:24;;;;;;;26.67;16.53;;;;;;;;;;5072888;28;20460;-71
2023/01/26 14:57:52;;;;;;;21.70;11.40;;;;;;;;;;5073292;28;20532;-71
2023/01/26 15:00:23;;;;;;;19.80;11.00;;;;;;;;;;5072910;28;20586;-71
2023/01/26 15:02:50;;;;;;;9.70;6.93;;;;;;;;;;5072802;28;20836;-71
2023/01/26 15:05:19;;;;;;;14.30;8.10;;;;;;;;;;5072774;28;20447;-71
2023/01/26 15:07:47;;;;;;;13.80;7.60;;;;;;;;;;5072869;28;20460;-71
2023/01/26 15:10:41;;;;;;;15.07;8.23;;;;;;;;;;5072877;28;20464;-71
2023/01/26 15:13:20;;;;;;;43.30;18.80;;;;;;;;;;5048321;28;20471;-71
2023/01/26 15:15:47;;;;;;;20.43;9.43;;;;;;;;;;5072550;28;20467;-71
2023/01/26 15:18:19;;;;;;;20.30;10.00;;;;;;;;;;5072502;28;20819;-71
2023/01/26 15:20:52;;;;;;;16.40;8.50;;;;;;;;;;5072154;28;20487;-71